createdAt,value
2018-05-31T00:01:06.194Z,76.83
2018-05-31T00:03:33.625Z,76.79
2018-05-31T00:06:01.070Z,76.89
2018-05-31T00:08:28.591Z,76.53
2018-05-31T00:10:56.069Z,76.50
2018-05-31T00:13:23.524Z,77.03
2018-05-31T00:15:50.973Z,76.75
2018-05-31T00:18:19.004Z,76.28
2018-05-31T00:20:46.440Z,76.26
2018-05-31T00:23:13.926Z,76.11
2018-05-31T00:25:41.495Z,76.41
2018-05-31T00:28:08.981Z,76.64
2018-05-31T00:30:36.436Z,76.76
2018-05-31T00:33:03.930Z,76.99
2018-05-31T00:35:31.504Z,77.05
2018-05-31T00:37:59.057Z,77.12
2018-05-31T00:40:26.528Z,77.16
2018-05-31T00:42:53.966Z,77.05
2018-05-31T00:45:21.376Z,76.97
2018-05-31T00:47:48.818Z,77.00
2018-05-31T00:50:16.305Z,77.39
2018-05-31T00:52:43.714Z,77.99
2018-05-31T00:55:12.331Z,78.57
2018-05-31T00:57:39.738Z,78.75
2018-05-31T01:00:10.733Z,79.00
2018-05-31T01:02:38.232Z,79.09
2018-05-31T01:05:05.662Z,79.03
2018-05-31T01:07:33.129Z,79.50
2018-05-31T01:10:00.547Z,79.42
2018-05-31T01:12:27.993Z,79.47
2018-05-31T01:14:55.477Z,79.64
2018-05-31T01:17:22.933Z,80.17
2018-05-31T01:19:50.401Z,80.46
2018-05-31T01:22:17.881Z,80.56
2018-05-31T01:24:45.312Z,80.41
2018-05-31T01:27:12.951Z,80.06
2018-05-31T01:29:40.400Z,79.88
2018-05-31T01:32:07.939Z,79.53
2018-05-31T01:34:35.310Z,79.60
2018-05-31T01:37:02.794Z,79.70
2018-05-31T01:39:30.236Z,79.93
2018-05-31T01:41:57.740Z,79.95
2018-05-31T01:44:25.236Z,79.56
2018-05-31T01:46:52.739Z,79.57
2018-05-31T01:49:20.228Z,80.33
2018-05-31T01:51:47.805Z,80.94
2018-05-31T01:54:15.259Z,80.85
2018-05-31T01:56:42.692Z,80.68
2018-05-31T01:59:10.124Z,80.54
2018-05-31T02:01:37.592Z,80.46
2018-05-31T02:04:05.032Z,80.45
2018-05-31T02:06:32.448Z,80.34
2018-05-31T02:09:01.095Z,79.78
2018-05-31T02:11:28.528Z,79.64
2018-05-31T02:13:56.019Z,79.31
2018-05-31T02:16:23.511Z,79.08
2018-05-31T02:18:50.956Z,79.04
2018-05-31T02:21:18.399Z,79.12
2018-05-31T02:23:46.661Z,79.05
2018-05-31T02:26:14.158Z,79.03
2018-05-31T02:28:43.275Z,78.60
2018-05-31T02:31:10.728Z,78.38
2018-05-31T02:33:39.377Z,78.42
2018-05-31T02:36:06.803Z,78.21
2018-05-31T02:38:34.245Z,77.65
2018-05-31T02:41:01.730Z,77.87
2018-05-31T02:43:29.217Z,78.04
2018-05-31T02:45:56.735Z,77.93
2018-05-31T02:48:24.183Z,78.08
2018-05-31T02:50:51.638Z,78.26
2018-05-31T02:53:19.136Z,78.24
2018-05-31T02:55:46.572Z,77.75
2018-05-31T02:58:14.024Z,77.73
2018-05-31T03:00:41.490Z,78.04
2018-05-31T03:03:09.712Z,78.53
2018-05-31T03:05:37.195Z,78.84
2018-05-31T03:08:04.650Z,78.65
2018-05-31T03:10:32.184Z,78.87
2018-05-31T03:12:59.669Z,78.92
2018-05-31T03:15:27.100Z,78.99
2018-05-31T03:17:55.193Z,79.06
2018-05-31T03:20:22.665Z,79.47
2018-05-31T03:22:50.160Z,79.76
2018-05-31T03:25:17.635Z,79.10
2018-05-31T03:27:45.206Z,79.24
2018-05-31T03:30:12.957Z,79.38
2018-05-31T03:32:40.463Z,79.39
2018-05-31T03:35:07.912Z,79.93
2018-05-31T03:37:36.333Z,79.79
2018-05-31T03:40:03.814Z,79.51
2018-05-31T03:42:31.327Z,79.66
2018-05-31T03:44:58.796Z,79.58
2018-05-31T03:47:26.271Z,79.29
2018-05-31T03:49:53.703Z,79.22
2018-05-31T03:52:22.916Z,79.28
2018-05-31T03:54:50.429Z,79.20
2018-05-31T03:57:17.930Z,79.37
2018-05-31T03:59:46.469Z,79.52
2018-05-31T04:02:13.993Z,79.74
2018-05-31T04:04:41.438Z,79.42
2018-05-31T04:07:09.711Z,79.46
2018-05-31T04:09:37.163Z,79.60
2018-05-31T04:12:04.758Z,79.57
2018-05-31T04:14:32.202Z,79.17
2018-05-31T04:16:59.652Z,79.01
2018-05-31T04:19:27.082Z,78.86
2018-05-31T04:21:54.538Z,79.22
2018-05-31T04:24:22.077Z,79.23
2018-05-31T04:26:49.547Z,78.89
2018-05-31T04:29:17.169Z,78.42
2018-05-31T04:31:44.816Z,77.90
2018-05-31T04:34:12.441Z,77.53
2018-05-31T04:36:46.562Z,77.92
2018-05-31T04:39:13.980Z,78.02
2018-05-31T04:41:41.394Z,78.01
2018-05-31T04:44:08.838Z,77.68
2018-05-31T04:46:36.343Z,77.39
2018-05-31T04:49:03.886Z,77.22
2018-05-31T04:51:31.299Z,77.10
2018-05-31T04:54:01.817Z,76.67
2018-05-31T04:56:29.303Z,76.37
2018-05-31T04:58:56.720Z,75.78
2018-05-31T05:01:24.268Z,75.89
2018-05-31T05:03:51.748Z,75.52
2018-05-31T05:06:19.234Z,74.99
2018-05-31T05:08:46.777Z,74.58
2018-05-31T05:11:14.254Z,74.27
2018-05-31T05:13:43.059Z,73.99
2018-05-31T05:16:10.621Z,73.38
2018-05-31T05:18:38.201Z,73.23
2018-05-31T05:21:05.766Z,72.80
2018-05-31T05:23:33.257Z,73.20
2018-05-31T05:26:00.746Z,72.67
2018-05-31T05:28:28.211Z,72.17
2018-05-31T05:30:55.695Z,71.82
2018-05-31T05:33:23.180Z,70.98
2018-05-31T05:35:50.631Z,70.25
2018-05-31T05:38:18.093Z,69.53
2018-05-31T05:40:45.645Z,68.96
2018-05-31T05:43:17.764Z,68.61
2018-05-31T05:45:45.202Z,68.56
2018-05-31T05:48:12.781Z,68.48
2018-05-31T05:50:40.613Z,67.85
2018-05-31T05:53:08.130Z,67.34
2018-05-31T05:55:35.634Z,67.11
2018-05-31T05:58:03.213Z,66.98
2018-05-31T06:00:30.631Z,67.00
2018-05-31T06:02:58.119Z,67.16
2018-05-31T06:05:25.642Z,67.63
2018-05-31T06:07:53.107Z,68.58
2018-05-31T06:10:20.656Z,67.74
2018-05-31T06:12:48.187Z,67.02
2018-05-31T06:15:15.660Z,66.37
2018-05-31T06:17:43.180Z,66.01
2018-05-31T06:20:10.630Z,66.17
2018-05-31T06:22:39.003Z,66.27
2018-05-31T06:25:06.464Z,66.07
2018-05-31T06:27:33.908Z,65.18
2018-05-31T06:30:01.431Z,64.59
2018-05-31T06:32:32.617Z,65.19
2018-05-31T06:35:00.088Z,64.13
2018-05-31T06:37:28.017Z,63.72
2018-05-31T06:39:55.512Z,63.45
2018-05-31T06:42:23.976Z,63.09
2018-05-31T06:44:51.630Z,63.06
2018-05-31T06:47:19.057Z,62.93
2018-05-31T06:49:46.520Z,62.62
2018-05-31T06:52:14.029Z,61.87
2018-05-31T06:54:41.486Z,60.73
2018-05-31T06:57:08.949Z,60.27
2018-05-31T06:59:36.479Z,60.09
2018-05-31T07:02:03.901Z,59.85
2018-05-31T07:04:31.362Z,58.45
2018-05-31T07:06:58.844Z,58.28
2018-05-31T07:09:26.326Z,58.31
2018-05-31T07:11:53.846Z,57.45
2018-05-31T07:14:21.261Z,56.25
2018-05-31T07:16:48.862Z,55.43
2018-05-31T07:19:22.103Z,54.76
2018-05-31T07:21:49.653Z,54.70
2018-05-31T07:24:17.098Z,54.88
2018-05-31T07:26:44.701Z,55.29
2018-05-31T07:29:12.191Z,55.75
2018-05-31T07:31:39.770Z,55.82
2018-05-31T07:34:07.200Z,56.25
2018-05-31T07:36:34.689Z,56.59
2018-05-31T07:39:02.138Z,56.65
2018-05-31T07:41:29.737Z,55.48
2018-05-31T07:43:57.207Z,54.40
2018-05-31T07:46:24.982Z,53.84
2018-05-31T07:48:52.521Z,53.21
2018-05-31T07:51:20.180Z,52.72
2018-05-31T07:53:48.747Z,53.00
2018-05-31T07:56:16.333Z,52.94
2018-05-31T07:58:43.807Z,52.21
2018-05-31T08:01:11.432Z,52.19
2018-05-31T08:03:38.959Z,51.47
2018-05-31T08:06:07.643Z,50.82
2018-05-31T08:08:35.886Z,49.93
2018-05-31T08:11:03.457Z,50.21
2018-05-31T08:13:30.971Z,50.22
2018-05-31T08:15:58.431Z,49.83
2018-05-31T08:18:25.870Z,49.54
2018-05-31T08:20:55.073Z,50.29
2018-05-31T08:23:22.548Z,50.32
2018-05-31T08:25:50.894Z,49.51
2018-05-31T08:28:18.482Z,48.98
2018-05-31T08:30:45.895Z,48.83
2018-05-31T08:33:13.377Z,48.79
2018-05-31T08:35:41.751Z,48.66
2018-05-31T08:38:09.218Z,48.26
2018-05-31T08:40:36.866Z,48.58
2018-05-31T08:43:04.338Z,48.15
2018-05-31T08:45:31.756Z,48.96
2018-05-31T08:47:59.188Z,49.16
2018-05-31T08:50:26.777Z,48.33
2018-05-31T08:52:54.199Z,48.50
2018-05-31T08:55:21.671Z,47.29
2018-05-31T08:57:49.125Z,48.24
2018-05-31T09:00:16.651Z,47.18
2018-05-31T09:02:44.156Z,47.53
2018-05-31T09:05:11.607Z,46.64
2018-05-31T09:07:39.441Z,46.94
2018-05-31T09:10:06.869Z,47.20
2018-05-31T09:12:34.407Z,46.43
2018-05-31T09:15:01.950Z,45.06
2018-05-31T09:17:30.411Z,44.89
2018-05-31T09:19:57.823Z,45.48
2018-05-31T09:22:25.289Z,44.34
2018-05-31T09:24:52.917Z,44.15
2018-05-31T09:27:20.396Z,43.75
2018-05-31T09:29:47.901Z,43.17
2018-05-31T09:32:15.376Z,42.67
2018-05-31T09:34:42.802Z,41.44
2018-05-31T09:37:11.226Z,41.36
2018-05-31T09:39:38.765Z,40.76
2018-05-31T09:42:07.259Z,40.62
2018-05-31T09:44:34.802Z,40.76
2018-05-31T09:47:02.205Z,42.26
2018-05-31T09:49:29.642Z,42.33
2018-05-31T09:51:57.157Z,42.30
2018-05-31T09:54:24.599Z,42.83
2018-05-31T09:56:52.127Z,43.35
2018-05-31T09:59:19.668Z,43.58
2018-05-31T10:01:47.288Z,44.03
2018-05-31T10:04:14.822Z,43.59
2018-05-31T10:06:42.409Z,43.26
2018-05-31T10:09:09.875Z,45.08
2018-05-31T10:11:37.361Z,47.16
2018-05-31T10:14:04.905Z,48.71
2018-05-31T10:16:32.451Z,50.63
2018-05-31T10:18:59.943Z,50.58
2018-05-31T10:21:27.551Z,51.92
2018-05-31T10:23:55.075Z,52.34
2018-05-31T10:26:23.280Z,52.07
2018-05-31T10:28:51.083Z,51.76
2018-05-31T10:31:18.481Z,51.89
2018-05-31T10:33:45.976Z,52.23
2018-05-31T10:36:13.556Z,52.02
2018-05-31T10:38:41.034Z,51.89
2018-05-31T10:41:08.512Z,52.45
2018-05-31T10:43:36.095Z,52.32
2018-05-31T10:46:03.512Z,52.16
2018-05-31T10:48:31.026Z,51.47
2018-05-31T10:51:00.279Z,51.79
2018-05-31T10:53:28.436Z,51.76
2018-05-31T10:55:55.945Z,52.21
2018-05-31T10:58:23.424Z,53.16
2018-05-31T11:00:51.064Z,52.86
2018-05-31T11:03:22.194Z,52.41
2018-05-31T11:05:49.582Z,51.86
2018-05-31T11:08:17.019Z,51.99
2018-05-31T11:10:46.062Z,50.96
2018-05-31T11:13:13.510Z,51.21
2018-05-31T11:15:42.791Z,51.15
2018-05-31T11:18:10.260Z,51.41
2018-05-31T11:20:38.483Z,50.38
2018-05-31T11:23:06.190Z,50.04
2018-05-31T11:25:33.768Z,49.35
2018-05-31T11:28:01.261Z,49.14
2018-05-31T11:30:28.778Z,48.46
2018-05-31T11:32:56.233Z,48.75
2018-05-31T11:35:23.222Z,48.92
2018-05-31T11:37:50.211Z,47.41
2018-05-31T11:40:17.272Z,46.44
2018-05-31T11:42:44.302Z,46.59
2018-05-31T11:45:11.784Z,46.34
2018-05-31T11:47:39.203Z,46.20
2018-05-31T11:50:06.361Z,46.21
2018-05-31T11:52:33.962Z,46.11
2018-05-31T11:55:01.487Z,45.74
2018-05-31T11:57:28.441Z,45.32
2018-05-31T11:59:57.262Z,45.53
2018-05-31T12:02:24.290Z,45.05
2018-05-31T12:04:51.226Z,45.34
2018-05-31T12:07:18.338Z,45.04
2018-05-31T12:09:45.560Z,44.84
2018-05-31T12:12:12.681Z,45.40
2018-05-31T12:14:40.344Z,45.29
2018-05-31T12:17:08.004Z,45.21
2018-05-31T12:19:35.522Z,44.33
2018-05-31T12:22:02.466Z,43.25
2018-05-31T12:24:29.517Z,42.81
2018-05-31T12:26:56.529Z,42.40
2018-05-31T12:29:23.622Z,43.43
2018-05-31T12:31:50.608Z,42.92
2018-05-31T12:34:17.637Z,42.27
2018-05-31T12:36:45.865Z,41.92
2018-05-31T12:39:12.987Z,42.29
2018-05-31T12:41:40.380Z,42.96
2018-05-31T12:44:07.900Z,43.26
2018-05-31T12:46:34.915Z,41.55
2018-05-31T12:49:01.913Z,40.97
2018-05-31T12:51:29.015Z,41.59
2018-05-31T12:53:56.091Z,41.30
2018-05-31T12:56:23.222Z,42.00
2018-05-31T12:58:51.366Z,42.80
2018-05-31T13:01:19.000Z,43.83
2018-05-31T13:03:46.454Z,43.16
2018-05-31T13:06:13.932Z,43.09
2018-05-31T13:08:41.440Z,43.82
2018-05-31T13:11:08.929Z,43.74
2018-05-31T13:13:36.566Z,43.25
2018-05-31T13:16:04.068Z,42.55
2018-05-31T13:18:31.051Z,42.67
2018-05-31T13:20:58.142Z,41.93
2018-05-31T13:23:25.160Z,42.56
2018-05-31T13:25:52.118Z,42.27
2018-05-31T13:28:19.410Z,42.92
2018-05-31T13:30:46.395Z,42.40
2018-05-31T13:33:13.528Z,44.11
2018-05-31T13:35:40.543Z,46.63
2018-05-31T13:38:08.090Z,47.30
2018-05-31T13:40:35.677Z,48.09
2018-05-31T13:43:03.236Z,49.04
2018-05-31T13:45:30.708Z,49.22
2018-05-31T13:47:58.256Z,49.59
2018-05-31T13:50:25.705Z,51.02
2018-05-31T13:52:53.290Z,51.60
2018-05-31T13:55:21.977Z,52.12
2018-05-31T13:57:50.199Z,53.17
2018-05-31T14:00:17.659Z,53.94
2018-05-31T14:02:45.203Z,55.31
2018-05-31T14:05:12.694Z,55.90
2018-05-31T14:07:40.216Z,56.43
2018-05-31T14:10:07.215Z,56.80
2018-05-31T14:12:35.501Z,57.52
2018-05-31T14:15:02.500Z,60.19
2018-05-31T14:17:29.959Z,61.94
2018-05-31T14:19:57.416Z,62.99
2018-05-31T14:22:24.854Z,61.63
2018-05-31T14:24:52.395Z,61.18
2018-05-31T14:27:19.843Z,61.97
2018-05-31T14:29:48.613Z,62.15
2018-05-31T14:32:16.084Z,61.57
2018-05-31T14:34:43.651Z,60.93
2018-05-31T14:37:11.832Z,61.59
2018-05-31T14:39:39.017Z,60.85
2018-05-31T14:42:06.472Z,61.13
2018-05-31T14:44:33.541Z,59.53
2018-05-31T14:47:00.564Z,57.90
2018-05-31T14:49:27.512Z,57.00
2018-05-31T14:51:55.083Z,57.13
2018-05-31T14:54:22.106Z,54.69
2018-05-31T14:56:50.094Z,52.95
2018-05-31T14:59:17.660Z,52.97
2018-05-31T15:01:46.093Z,52.29
2018-05-31T15:04:13.809Z,52.18
2018-05-31T15:06:41.259Z,49.53
2018-05-31T15:09:08.801Z,50.08
2018-05-31T15:11:36.920Z,50.02
2018-05-31T15:14:04.924Z,50.02
2018-05-31T15:16:32.379Z,49.88
2018-05-31T15:18:59.885Z,50.30
2018-05-31T15:21:27.295Z,49.73
2018-05-31T15:23:55.294Z,52.48
2018-05-31T15:26:22.907Z,55.13
2018-05-31T15:28:50.483Z,55.25
2018-05-31T15:31:18.187Z,55.70
2018-05-31T15:33:45.701Z,57.36
2018-05-31T15:36:13.166Z,57.11
2018-05-31T15:38:41.549Z,56.75
2018-05-31T15:41:09.091Z,56.84
2018-05-31T15:43:37.251Z,55.11
2018-05-31T15:46:04.703Z,55.53
2018-05-31T15:48:32.156Z,55.38
2018-05-31T15:50:59.676Z,55.12
2018-05-31T15:53:27.239Z,55.88
2018-05-31T15:55:54.691Z,56.55
2018-05-31T15:58:22.190Z,56.57
2018-05-31T16:00:49.719Z,56.97
2018-05-31T16:03:18.976Z,56.73
2018-05-31T16:05:46.700Z,57.08
2018-05-31T16:08:17.067Z,58.42
2018-05-31T16:10:44.581Z,58.29
2018-05-31T16:13:12.972Z,57.84
2018-05-31T16:15:40.399Z,59.92
2018-05-31T16:18:07.989Z,60.27
2018-05-31T16:20:35.444Z,60.67
2018-05-31T16:23:03.429Z,61.14
2018-05-31T16:25:30.943Z,62.64
2018-05-31T16:27:58.396Z,69.71
2018-05-31T16:30:25.878Z,74.80
2018-05-31T16:32:53.360Z,76.86
2018-05-31T16:35:22.619Z,77.62
2018-05-31T16:37:50.135Z,76.35
2018-05-31T16:40:17.598Z,75.27
2018-05-31T16:42:45.806Z,74.09
2018-05-31T16:45:13.211Z,73.43
2018-05-31T16:47:40.631Z,72.82
2018-05-31T16:50:08.339Z,72.75
2018-05-31T16:52:35.825Z,74.00
2018-05-31T16:55:03.232Z,73.90
2018-05-31T16:57:30.699Z,74.04
2018-05-31T16:59:58.301Z,76.67
2018-05-31T17:02:25.796Z,76.53
2018-05-31T17:04:53.216Z,75.01
2018-05-31T17:07:20.716Z,74.89
2018-05-31T17:09:48.171Z,76.30
2018-05-31T17:12:15.811Z,76.05
2018-05-31T17:14:43.301Z,75.56
2018-05-31T17:17:10.815Z,76.42
2018-05-31T17:19:39.279Z,76.64
2018-05-31T17:22:06.734Z,76.53
2018-05-31T17:24:34.178Z,76.11
2018-05-31T17:27:01.722Z,76.29
2018-05-31T17:29:29.133Z,76.02
2018-05-31T17:31:59.232Z,76.02
2018-05-31T17:34:26.971Z,77.20
2018-05-31T17:36:54.653Z,76.04
2018-05-31T17:39:22.251Z,75.40
2018-05-31T17:41:49.715Z,76.76
2018-05-31T17:44:17.187Z,77.15
2018-05-31T17:46:45.774Z,77.96
2018-05-31T17:49:13.258Z,77.13
2018-05-31T17:51:41.028Z,76.83
2018-05-31T17:54:08.495Z,77.86
2018-05-31T17:56:35.935Z,76.68
2018-05-31T17:59:06.141Z,76.41
2018-05-31T18:01:33.566Z,76.27
2018-05-31T18:04:01.311Z,76.13
2018-05-31T18:06:29.382Z,76.54
2018-05-31T18:08:56.846Z,76.29
2018-05-31T18:11:25.834Z,75.61
2018-05-31T18:13:53.647Z,75.71
2018-05-31T18:16:21.109Z,75.58
2018-05-31T18:18:48.691Z,75.85
2018-05-31T18:21:16.331Z,75.21
2018-05-31T18:23:44.584Z,76.00
2018-05-31T18:26:12.036Z,76.87
2018-05-31T18:28:39.501Z,76.51
2018-05-31T18:31:06.923Z,76.84
2018-05-31T18:33:34.368Z,76.24
2018-05-31T18:36:02.001Z,76.32
2018-05-31T18:38:29.555Z,76.80
2018-05-31T18:40:57.052Z,77.48
2018-05-31T18:45:58.215Z,77.15
2018-05-31T18:48:25.685Z,76.96
2018-05-31T18:50:53.087Z,77.60
2018-05-31T18:53:20.529Z,77.43
2018-05-31T18:55:48.008Z,77.04
2018-05-31T18:58:16.609Z,77.14
2018-05-31T19:00:44.138Z,76.80
2018-05-31T19:03:12.848Z,76.04
2018-05-31T19:05:42.339Z,75.80
2018-05-31T19:08:09.811Z,75.83
2018-05-31T19:10:37.281Z,75.56
2018-05-31T19:13:10.211Z,75.57
2018-05-31T19:15:37.804Z,76.68
2018-05-31T19:18:05.208Z,77.50
2018-05-31T19:20:32.655Z,77.93
2018-05-31T19:23:00.131Z,77.76
2018-05-31T19:25:27.558Z,78.13
2018-05-31T19:27:55.111Z,77.74
2018-05-31T19:30:28.133Z,77.54
2018-05-31T19:32:55.562Z,77.14
2018-05-31T19:35:28.483Z,77.52
2018-05-31T19:37:55.937Z,78.00
2018-05-31T19:40:25.278Z,77.86
2018-05-31T19:42:58.375Z,77.95
2018-05-31T19:45:25.844Z,78.28
2018-05-31T19:47:53.341Z,77.98
2018-05-31T19:50:20.828Z,77.70
2018-05-31T19:52:57.767Z,77.54
2018-05-31T19:55:25.241Z,77.47
2018-05-31T19:57:58.288Z,77.33
2018-05-31T20:00:31.860Z,76.93
2018-05-31T20:03:06.022Z,76.97
2018-05-31T20:05:33.536Z,76.54
2018-05-31T20:08:02.453Z,75.79
2018-05-31T20:10:29.956Z,75.99
2018-05-31T20:12:57.451Z,76.12
2018-05-31T20:15:24.894Z,76.56
2018-05-31T20:17:52.359Z,76.32
2018-05-31T20:20:19.879Z,76.39
2018-05-31T20:22:47.306Z,77.01
2018-05-31T20:25:14.754Z,77.34
2018-05-31T20:27:42.221Z,77.52
2018-05-31T20:30:09.660Z,77.50
2018-05-31T20:32:38.261Z,77.03
2018-05-31T20:35:05.772Z,76.98
2018-05-31T20:37:33.273Z,77.22
2018-05-31T20:40:00.756Z,77.60
2018-05-31T20:42:28.285Z,78.03
2018-05-31T20:44:55.720Z,78.07
2018-05-31T20:47:23.143Z,77.77
2018-05-31T20:49:51.768Z,78.19
2018-05-31T20:52:19.224Z,78.47
2018-05-31T20:54:46.778Z,78.18
2018-05-31T20:57:14.244Z,78.42
2018-05-31T20:59:41.691Z,77.91
2018-05-31T21:02:09.984Z,78.11
2018-05-31T21:04:37.397Z,78.00
2018-05-31T21:07:04.942Z,77.75
2018-05-31T21:09:32.478Z,77.35
2018-05-31T21:12:00.006Z,77.32
2018-05-31T21:14:27.410Z,77.50
2018-05-31T21:16:54.863Z,78.07
2018-05-31T21:19:22.336Z,78.19
2018-05-31T21:21:50.715Z,78.53
2018-05-31T21:24:18.154Z,78.06
2018-05-31T21:26:45.619Z,78.08
2018-05-31T21:29:13.273Z,77.87
2018-05-31T21:31:40.696Z,78.12
2018-05-31T21:34:11.332Z,77.91
2018-05-31T21:36:38.756Z,78.03
2018-05-31T21:39:06.184Z,78.18
2018-05-31T21:41:34.333Z,78.19
2018-05-31T21:44:01.813Z,78.91
2018-05-31T21:46:29.261Z,79.06
2018-05-31T21:48:58.099Z,79.51
2018-05-31T21:51:26.335Z,79.60
2018-05-31T21:53:53.747Z,79.85
2018-05-31T21:56:21.139Z,79.60
2018-05-31T21:58:48.585Z,79.48
2018-05-31T22:03:54.347Z,79.31
2018-05-31T22:06:21.792Z,79.32
2018-05-31T22:08:49.292Z,79.22
2018-05-31T22:11:16.996Z,79.31
2018-05-31T22:13:45.370Z,78.74
2018-05-31T22:16:12.890Z,78.87
2018-05-31T22:18:40.343Z,79.30
2018-05-31T22:21:07.798Z,79.62
2018-05-31T22:23:35.804Z,79.97
2018-05-31T22:26:05.348Z,79.91
2018-05-31T22:28:32.994Z,80.12
2018-05-31T22:31:00.436Z,80.04
2018-05-31T22:33:27.967Z,80.00
2018-05-31T22:35:55.410Z,80.09
2018-05-31T22:38:22.904Z,79.87
2018-05-31T22:40:51.329Z,80.01
2018-05-31T22:43:18.889Z,80.15
2018-05-31T22:45:48.331Z,80.10
2018-05-31T22:48:15.824Z,80.14
2018-05-31T22:50:43.624Z,80.03
2018-05-31T22:53:11.136Z,79.75
2018-05-31T22:55:38.620Z,79.79
2018-05-31T22:58:06.107Z,79.37
2018-05-31T23:00:33.551Z,79.14
2018-05-31T23:03:01.131Z,79.03
2018-05-31T23:05:28.920Z,78.93
2018-05-31T23:07:56.938Z,79.12
2018-05-31T23:10:24.407Z,78.95
2018-05-31T23:12:53.885Z,78.78
2018-05-31T23:15:21.497Z,79.05
2018-05-31T23:17:51.557Z,79.02
2018-05-31T23:20:19.032Z,79.29
2018-05-31T23:22:46.495Z,79.61
2018-05-31T23:25:14.009Z,79.65
2018-05-31T23:27:41.443Z,79.51
2018-05-31T23:30:08.859Z,79.34
2018-05-31T23:32:36.331Z,79.19
2018-05-31T23:35:03.790Z,79.23
2018-05-31T23:37:31.269Z,79.74
2018-05-31T23:39:58.681Z,79.97
2018-05-31T23:42:26.145Z,80.13
2018-05-31T23:44:53.579Z,79.83
2018-05-31T23:47:21.033Z,79.67
2018-05-31T23:49:49.069Z,79.29
2018-05-31T23:52:16.609Z,78.90
2018-05-31T23:54:44.151Z,78.58
2018-05-31T23:57:11.598Z,78.38
2018-05-31T23:59:39.616Z,78.55
